createdAt,value
2022-07-26T00:00:05.796Z,9.75
2022-07-26T00:00:37.848Z,10.23
2022-07-26T00:01:09.747Z,11.45
2022-07-26T00:01:41.924Z,9.60
2022-07-26T00:02:18.225Z,10.55
2022-07-26T00:02:50.486Z,10.95
2022-07-26T00:03:22.387Z,9.52
2022-07-26T00:03:54.939Z,9.48
2022-07-26T00:04:27.005Z,9.88
2022-07-26T00:04:58.816Z,9.93
2022-07-26T00:05:30.882Z,12.48
2022-07-26T00:06:02.676Z,10.90
2022-07-26T00:06:34.648Z,10.15
2022-07-26T00:07:06.440Z,10.32
2022-07-26T00:07:38.289Z,9.10
2022-07-26T00:08:12.942Z,10.38
2022-07-26T00:08:44.789Z,9.32
2022-07-26T00:09:16.719Z,10.82
2022-07-26T00:09:48.701Z,9.15
2022-07-26T00:10:20.723Z,15.27
2022-07-26T00:10:52.804Z,9.25
2022-07-26T00:11:25.850Z,9.90
2022-07-26T00:11:57.679Z,10.20
2022-07-26T00:12:29.516Z,8.95
2022-07-26T00:13:01.336Z,10.77
2022-07-26T00:13:33.599Z,10.90
2022-07-26T00:14:08.290Z,9.63
2022-07-26T00:14:42.618Z,12.43
2022-07-26T00:15:14.754Z,11.15
2022-07-26T00:15:48.383Z,8.93
2022-07-26T00:16:21.636Z,11.48
2022-07-26T00:16:53.595Z,12.23
2022-07-26T00:17:25.870Z,10.80
2022-07-26T00:17:57.777Z,9.48
2022-07-26T00:18:29.776Z,9.23
2022-07-26T00:19:01.695Z,12.82
2022-07-26T00:19:33.479Z,11.52
2022-07-26T00:20:06.028Z,10.75
2022-07-26T00:20:37.905Z,9.48
2022-07-26T00:21:11.752Z,10.07
2022-07-26T00:21:43.731Z,10.73
2022-07-26T00:22:34.171Z,9.48
2022-07-26T00:23:06.475Z,9.63
2022-07-26T00:23:38.592Z,10.93
2022-07-26T00:24:10.652Z,9.18
2022-07-26T00:24:42.495Z,9.52
2022-07-26T00:25:14.468Z,12.50
2022-07-26T00:25:46.954Z,9.23
2022-07-26T00:26:18.800Z,10.05
2022-07-26T00:26:50.637Z,11.63
2022-07-26T00:27:22.625Z,12.82
2022-07-26T00:27:54.942Z,13.40
2022-07-26T00:28:26.895Z,9.65
2022-07-26T00:28:59.509Z,11.50
2022-07-26T00:29:31.807Z,10.80
2022-07-26T00:30:06.296Z,9.55
2022-07-26T00:30:38.604Z,9.13
2022-07-26T00:31:12.751Z,10.40
2022-07-26T00:31:44.703Z,9.60
2022-07-26T00:32:16.734Z,14.15
2022-07-26T00:32:48.990Z,9.40
2022-07-26T00:33:20.823Z,10.27
2022-07-26T00:33:52.775Z,9.85
2022-07-26T00:34:24.671Z,10.32
2022-07-26T00:34:56.496Z,10.13
2022-07-26T00:35:28.347Z,9.88
2022-07-26T00:36:00.349Z,10.45
2022-07-26T00:36:32.184Z,10.15
2022-07-26T00:37:03.965Z,9.25
2022-07-26T00:37:35.935Z,9.02
2022-07-26T00:38:07.907Z,10.10
2022-07-26T00:38:41.295Z,11.73
2022-07-26T00:39:13.106Z,12.48
2022-07-26T00:39:45.089Z,13.48
2022-07-26T00:40:17.286Z,9.93
2022-07-26T00:40:49.205Z,11.55
2022-07-26T00:41:20.980Z,9.70
2022-07-26T00:41:52.961Z,8.52
2022-07-26T00:42:24.837Z,8.07
2022-07-26T00:42:59.689Z,9.73
2022-07-26T00:43:31.644Z,8.88
2022-07-26T00:44:05.504Z,8.95
2022-07-26T00:44:42.200Z,8.85
2022-07-26T00:45:14.940Z,9.95
2022-07-26T00:45:46.955Z,9.80
2022-07-26T00:46:18.879Z,8.85
2022-07-26T00:46:50.726Z,9.27
2022-07-26T00:47:22.881Z,8.63
2022-07-26T00:47:54.832Z,12.48
2022-07-26T00:48:27.032Z,9.73
2022-07-26T00:48:59.041Z,8.68
2022-07-26T00:49:30.954Z,10.35
2022-07-26T00:50:08.288Z,11.00
2022-07-26T00:50:40.158Z,9.70
2022-07-26T00:51:12.045Z,10.00
2022-07-26T00:51:46.467Z,14.95
2022-07-26T00:52:18.711Z,10.63
2022-07-26T00:52:50.790Z,11.43
2022-07-26T00:53:23.726Z,11.43
2022-07-26T00:53:55.556Z,10.65
2022-07-26T00:54:27.855Z,9.95
2022-07-26T00:54:59.783Z,9.93
2022-07-26T00:55:32.025Z,10.10
2022-07-26T00:56:04.321Z,10.10
2022-07-26T00:56:36.223Z,8.95
2022-07-26T00:57:08.111Z,8.45
2022-07-26T00:57:40.752Z,8.45
2022-07-26T00:58:13.529Z,12.85
2022-07-26T00:58:45.357Z,8.13
2022-07-26T00:59:17.201Z,10.13
2022-07-26T00:59:49.153Z,8.80
2022-07-26T01:00:23.811Z,8.57
2022-07-26T01:00:55.690Z,9.75
2022-07-26T01:01:27.680Z,10.00
2022-07-26T01:01:59.679Z,9.10
2022-07-26T01:02:31.656Z,9.50
2022-07-26T01:03:03.631Z,8.82
2022-07-26T01:03:38.411Z,9.20
2022-07-26T01:04:12.129Z,10.07
2022-07-26T01:04:44.864Z,9.35
2022-07-26T01:05:16.863Z,15.82
2022-07-26T01:05:50.798Z,12.70
2022-07-26T01:06:27.098Z,9.07
2022-07-26T01:06:59.515Z,9.85
2022-07-26T01:07:31.492Z,9.50
2022-07-26T01:08:03.485Z,10.20
2022-07-26T01:08:35.515Z,10.93
2022-07-26T01:09:07.455Z,11.80
2022-07-26T01:09:40.467Z,9.10
2022-07-26T01:10:12.857Z,11.35
2022-07-26T01:10:44.813Z,10.23
2022-07-26T01:11:16.691Z,10.57
2022-07-26T01:11:48.715Z,10.20
2022-07-26T01:12:21.159Z,12.20
2022-07-26T01:12:53.008Z,9.73
2022-07-26T01:13:25.004Z,10.68
2022-07-26T01:13:57.538Z,9.90
2022-07-26T01:14:29.422Z,10.80
2022-07-26T01:15:01.249Z,11.48
2022-07-26T01:15:33.078Z,9.77
2022-07-26T01:16:05.201Z,9.27
2022-07-26T01:16:37.275Z,15.05
2022-07-26T01:17:09.547Z,9.85
2022-07-26T01:17:42.186Z,10.10
2022-07-26T01:18:14.511Z,9.05
2022-07-26T01:18:46.359Z,10.88
2022-07-26T01:19:18.809Z,8.80
2022-07-26T01:19:50.617Z,10.43
2022-07-26T01:20:22.635Z,8.60
2022-07-26T01:20:56.691Z,9.25
2022-07-26T01:21:30.430Z,8.80
2022-07-26T01:22:02.443Z,10.20
2022-07-26T01:22:34.379Z,9.18
2022-07-26T01:23:07.772Z,11.55
2022-07-26T01:23:39.949Z,8.82
2022-07-26T01:24:12.027Z,8.77
2022-07-26T01:24:44.196Z,9.60
2022-07-26T01:25:16.117Z,9.23
2022-07-26T01:25:48.770Z,11.32
2022-07-26T01:26:22.861Z,12.18
2022-07-26T01:26:57.719Z,8.65
2022-07-26T01:27:33.828Z,10.77
2022-07-26T01:28:06.038Z,9.98
2022-07-26T01:28:39.183Z,8.60
2022-07-26T01:29:11.178Z,11.18
2022-07-26T01:29:43.108Z,7.80
2022-07-26T01:30:14.959Z,9.35
2022-07-26T01:30:47.113Z,8.00
2022-07-26T01:31:19.087Z,10.68
2022-07-26T01:31:51.673Z,10.25
2022-07-26T01:32:23.609Z,9.35
2022-07-26T01:32:55.853Z,9.63
2022-07-26T01:33:28.277Z,9.65
2022-07-26T01:34:00.279Z,10.88
2022-07-26T01:34:32.415Z,8.15
2022-07-26T01:35:04.962Z,8.50
2022-07-26T01:35:36.792Z,10.43
2022-07-26T01:36:09.269Z,7.88
2022-07-26T01:36:41.198Z,8.23
2022-07-26T01:37:13.088Z,8.35
2022-07-26T01:37:44.943Z,8.82
2022-07-26T01:38:16.921Z,9.57
2022-07-26T01:38:49.349Z,9.55
2022-07-26T01:39:21.373Z,9.05
2022-07-26T01:39:53.295Z,8.95
2022-07-26T01:40:25.179Z,9.57
2022-07-26T01:40:57.077Z,7.85
2022-07-26T01:41:37.442Z,10.70
2022-07-26T01:42:10.221Z,12.88
2022-07-26T01:42:42.124Z,10.18
2022-07-26T01:43:13.913Z,9.10
2022-07-26T01:43:46.452Z,8.27
2022-07-26T01:44:18.322Z,8.27
2022-07-26T01:44:50.109Z,11.00
2022-07-26T01:45:22.229Z,10.10
2022-07-26T01:45:54.174Z,8.60
2022-07-26T01:46:26.089Z,11.45
2022-07-26T01:46:58.021Z,7.75
2022-07-26T01:47:29.825Z,8.90
2022-07-26T01:48:01.765Z,10.50
2022-07-26T01:48:34.361Z,8.07
2022-07-26T01:49:08.498Z,10.27
2022-07-26T01:49:40.569Z,7.55
2022-07-26T01:50:12.435Z,9.98
2022-07-26T01:50:44.354Z,9.43
2022-07-26T01:51:16.191Z,9.50
2022-07-26T01:51:48.095Z,10.70
2022-07-26T01:52:20.083Z,8.90
2022-07-26T01:52:52.150Z,10.15
2022-07-26T01:53:24.008Z,8.70
2022-07-26T01:53:56.216Z,10.68
2022-07-26T01:54:29.216Z,9.75
2022-07-26T01:55:01.183Z,10.30
2022-07-26T01:55:33.026Z,8.60
2022-07-26T01:56:06.449Z,8.98
2022-07-26T01:56:38.444Z,11.00
2022-07-26T01:57:10.516Z,9.68
2022-07-26T01:57:45.070Z,9.48
2022-07-26T01:58:16.949Z,9.88
2022-07-26T01:58:49.073Z,9.43
2022-07-26T01:59:21.072Z,8.70
2022-07-26T01:59:52.875Z,10.93
2022-07-26T02:00:24.777Z,8.95
2022-07-26T02:00:56.593Z,12.38
2022-07-26T02:01:39.059Z,10.35
2022-07-26T02:02:14.644Z,9.50
2022-07-26T02:02:46.661Z,10.40
2022-07-26T02:03:18.928Z,10.82
2022-07-26T02:03:50.830Z,9.18
2022-07-26T02:04:41.434Z,9.65
2022-07-26T02:05:13.397Z,8.95
2022-07-26T02:05:45.293Z,9.52
2022-07-26T02:06:17.073Z,8.57
2022-07-26T02:06:48.891Z,7.80
2022-07-26T02:07:21.159Z,10.13
2022-07-26T02:07:53.049Z,10.25
2022-07-26T02:08:24.856Z,8.25
2022-07-26T02:08:56.637Z,9.65
2022-07-26T02:09:32.002Z,9.48
2022-07-26T02:10:12.749Z,13.15
2022-07-26T02:11:03.391Z,9.82
2022-07-26T02:11:35.734Z,8.02
2022-07-26T02:12:08.056Z,8.05
2022-07-26T02:12:40.186Z,9.43
2022-07-26T02:13:13.348Z,10.48
2022-07-26T02:13:48.788Z,8.25
2022-07-26T02:14:25.999Z,7.88
2022-07-26T02:15:00.082Z,8.07
2022-07-26T02:15:31.952Z,7.53
2022-07-26T02:16:05.914Z,8.02
2022-07-26T02:16:37.738Z,8.40
2022-07-26T02:17:09.872Z,8.18
2022-07-26T02:17:42.371Z,10.15
2022-07-26T02:18:14.210Z,11.68
2022-07-26T02:18:46.178Z,10.45
2022-07-26T02:19:18.018Z,9.70
2022-07-26T02:19:50.322Z,7.82
2022-07-26T02:20:22.106Z,8.80
2022-07-26T02:20:54.205Z,10.57
2022-07-26T02:21:25.993Z,7.07
2022-07-26T02:21:58.236Z,8.07
2022-07-26T02:22:30.171Z,7.53
2022-07-26T02:23:03.310Z,8.65
2022-07-26T02:23:35.792Z,8.30
2022-07-26T02:24:13.169Z,8.98
2022-07-26T02:24:45.048Z,9.68
2022-07-26T02:25:17.543Z,8.13
2022-07-26T02:25:49.463Z,8.70
2022-07-26T02:26:21.272Z,7.68
2022-07-26T02:26:53.039Z,7.90
2022-07-26T02:27:24.914Z,9.68
2022-07-26T02:27:56.809Z,8.88
2022-07-26T02:28:29.100Z,9.18
2022-07-26T02:29:00.846Z,8.30
2022-07-26T02:29:32.952Z,8.40
2022-07-26T02:30:05.277Z,7.55
2022-07-26T02:30:38.199Z,9.20
2022-07-26T02:31:11.798Z,8.55
2022-07-26T02:31:48.528Z,7.70
2022-07-26T02:32:21.109Z,8.07
2022-07-26T02:32:53.006Z,10.10
2022-07-26T02:33:24.848Z,7.72
2022-07-26T02:33:56.855Z,8.30
2022-07-26T02:34:32.191Z,8.90
2022-07-26T02:35:06.267Z,7.85
2022-07-26T02:35:38.132Z,10.23
2022-07-26T02:36:09.906Z,7.45
2022-07-26T02:36:41.838Z,8.00
2022-07-26T02:37:13.696Z,7.85
2022-07-26T02:37:45.479Z,7.35
2022-07-26T02:38:17.731Z,7.28
2022-07-26T02:38:49.586Z,9.05
2022-07-26T02:39:21.895Z,7.47
2022-07-26T02:39:53.946Z,7.80
2022-07-26T02:40:29.048Z,8.10
2022-07-26T02:41:00.833Z,6.45
2022-07-26T02:41:32.734Z,8.82
2022-07-26T02:42:05.158Z,8.20
2022-07-26T02:42:37.107Z,6.82
2022-07-26T02:43:10.191Z,8.90
2022-07-26T02:43:42.019Z,7.40
2022-07-26T02:44:14.293Z,10.40
2022-07-26T02:44:46.091Z,7.90
2022-07-26T02:45:17.951Z,8.93
2022-07-26T02:46:01.102Z,7.65
2022-07-26T02:46:34.007Z,8.48
2022-07-26T02:47:06.990Z,8.18
2022-07-26T02:47:52.288Z,7.13
2022-07-26T02:48:24.088Z,8.18
2022-07-26T02:48:56.735Z,9.35
2022-07-26T02:49:28.723Z,6.30
2022-07-26T02:50:00.574Z,6.38
2022-07-26T02:50:32.535Z,7.35
2022-07-26T02:51:04.491Z,8.65
2022-07-26T02:51:36.287Z,7.00
2022-07-26T02:52:08.062Z,8.02
2022-07-26T02:52:39.875Z,6.40
2022-07-26T02:53:11.711Z,10.23
2022-07-26T02:53:43.619Z,6.65
2022-07-26T02:54:15.459Z,12.00
2022-07-26T02:54:47.234Z,10.35
2022-07-26T02:55:23.996Z,8.63
2022-07-26T02:55:58.255Z,9.13
2022-07-26T02:56:30.132Z,9.52
2022-07-26T02:57:01.955Z,7.85
2022-07-26T02:57:45.402Z,8.25
2022-07-26T02:58:21.500Z,7.63
2022-07-26T02:58:53.323Z,7.85
2022-07-26T02:59:25.114Z,9.88
2022-07-26T02:59:56.875Z,8.55
2022-07-26T03:00:29.381Z,9.98
2022-07-26T03:01:01.221Z,8.82
2022-07-26T03:01:35.348Z,8.52
2022-07-26T03:02:07.439Z,6.18
2022-07-26T03:02:40.127Z,9.70
2022-07-26T03:03:14.235Z,7.65
2022-07-26T03:03:50.549Z,9.10
2022-07-26T03:04:23.101Z,9.52
2022-07-26T03:04:54.939Z,7.03
2022-07-26T03:05:26.881Z,6.90
2022-07-26T03:05:58.698Z,5.63
2022-07-26T03:06:30.621Z,7.97
2022-07-26T03:07:02.411Z,6.35
2022-07-26T03:07:38.135Z,6.82
2022-07-26T03:08:10.210Z,9.18
2022-07-26T03:08:42.077Z,11.38
2022-07-26T03:09:14.008Z,10.50
2022-07-26T03:09:45.787Z,8.85
2022-07-26T03:10:17.623Z,9.07
2022-07-26T03:10:49.542Z,6.25
2022-07-26T03:11:21.473Z,8.80
2022-07-26T03:11:53.291Z,6.85
2022-07-26T03:12:25.619Z,6.53
2022-07-26T03:12:58.350Z,6.95
2022-07-26T03:13:30.176Z,11.57
2022-07-26T03:14:02.105Z,7.25
2022-07-26T03:14:41.247Z,8.52
2022-07-26T03:15:13.071Z,12.55
2022-07-26T03:15:45.096Z,5.80
2022-07-26T03:16:20.384Z,7.13
2022-07-26T03:16:54.613Z,9.88
2022-07-26T03:17:26.508Z,10.23
2022-07-26T03:17:58.367Z,10.15
2022-07-26T03:18:30.163Z,5.95
2022-07-26T03:19:02.116Z,7.45
2022-07-26T03:19:34.075Z,7.13
2022-07-26T03:20:06.605Z,10.00
2022-07-26T03:20:38.401Z,10.18
2022-07-26T03:21:10.435Z,7.10
2022-07-26T03:21:42.292Z,9.05
2022-07-26T03:22:14.273Z,9.10
2022-07-26T03:22:46.051Z,10.00
2022-07-26T03:23:17.890Z,7.60
2022-07-26T03:23:49.694Z,7.70
2022-07-26T03:24:21.445Z,7.88
2022-07-26T03:24:54.426Z,11.60
2022-07-26T03:25:26.221Z,8.10
2022-07-26T03:25:57.995Z,7.38
2022-07-26T03:26:29.979Z,8.23
2022-07-26T03:27:01.791Z,7.85
2022-07-26T03:27:33.922Z,7.55
2022-07-26T03:28:05.736Z,6.53
2022-07-26T03:28:37.651Z,9.00
2022-07-26T03:29:09.477Z,7.13
2022-07-26T03:29:41.330Z,7.10
2022-07-26T03:30:13.924Z,6.28
2022-07-26T03:30:46.034Z,8.52
2022-07-26T03:31:17.969Z,8.10
2022-07-26T03:31:49.813Z,8.63
2022-07-26T03:32:21.844Z,7.03
2022-07-26T03:32:54.120Z,7.50
2022-07-26T03:33:26.307Z,7.28
2022-07-26T03:34:03.004Z,6.53
2022-07-26T03:34:35.528Z,8.05
2022-07-26T03:35:08.581Z,8.77
2022-07-26T03:35:40.439Z,5.88
2022-07-26T03:36:15.392Z,4.90
2022-07-26T03:36:47.792Z,5.15
2022-07-26T03:37:19.669Z,6.72
2022-07-26T03:37:51.826Z,6.63
2022-07-26T03:38:23.703Z,8.75
2022-07-26T03:38:55.503Z,5.30
2022-07-26T03:39:27.365Z,5.57
2022-07-26T03:39:59.368Z,6.47
2022-07-26T03:40:31.648Z,8.48
2022-07-26T03:41:03.518Z,4.80
2022-07-26T03:41:35.808Z,11.65
2022-07-26T03:42:07.644Z,13.05
2022-07-26T03:42:39.450Z,8.07
2022-07-26T03:43:11.215Z,7.57
2022-07-26T03:43:42.955Z,4.93
2022-07-26T03:44:14.795Z,8.00
2022-07-26T03:44:46.649Z,6.25
2022-07-26T03:45:18.483Z,8.93
2022-07-26T03:45:51.017Z,5.97
2022-07-26T03:46:26.870Z,7.05
2022-07-26T03:46:59.211Z,5.43
2022-07-26T03:47:31.006Z,5.45
2022-07-26T03:48:02.818Z,4.60
2022-07-26T03:48:34.711Z,6.35
2022-07-26T03:49:06.863Z,6.57
2022-07-26T03:49:39.005Z,8.98
2022-07-26T03:50:11.511Z,5.13
2022-07-26T03:50:43.341Z,7.35
2022-07-26T03:51:15.168Z,7.45
2022-07-26T03:51:47.030Z,7.85
2022-07-26T03:52:19.081Z,8.27
2022-07-26T03:52:51.006Z,6.90
2022-07-26T03:53:23.085Z,5.90
2022-07-26T03:53:55.348Z,8.98
2022-07-26T03:54:28.613Z,6.60
2022-07-26T03:55:00.656Z,5.40
2022-07-26T03:55:51.137Z,6.68
2022-07-26T03:56:28.653Z,6.57
2022-07-26T03:57:00.453Z,5.78
2022-07-26T03:57:32.308Z,6.20
2022-07-26T03:58:04.283Z,7.38
2022-07-26T03:58:36.084Z,5.40
2022-07-26T03:59:10.918Z,6.30
2022-07-26T03:59:42.897Z,6.57
2022-07-26T04:00:15.094Z,6.30
2022-07-26T04:00:47.176Z,10.30
2022-07-26T04:01:19.053Z,5.22
2022-07-26T04:01:51.373Z,8.07
2022-07-26T04:02:23.350Z,7.60
2022-07-26T04:02:55.362Z,8.13
2022-07-26T04:03:27.230Z,6.38
2022-07-26T04:03:59.242Z,5.63
2022-07-26T04:04:31.336Z,7.15
2022-07-26T04:05:04.011Z,5.22
2022-07-26T04:05:36.127Z,8.48
2022-07-26T04:06:08.329Z,6.57
2022-07-26T04:06:41.841Z,6.72
2022-07-26T04:07:14.869Z,9.57
2022-07-26T04:07:52.479Z,5.53
2022-07-26T04:08:24.811Z,6.10
2022-07-26T04:08:56.952Z,5.50
2022-07-26T04:09:28.806Z,7.78
2022-07-26T04:10:00.647Z,7.72
2022-07-26T04:10:32.676Z,5.93
2022-07-26T04:11:04.797Z,9.55
2022-07-26T04:11:36.741Z,5.70
2022-07-26T04:12:08.842Z,8.52
2022-07-26T04:12:40.673Z,7.65
2022-07-26T04:13:12.427Z,5.35
2022-07-26T04:13:44.284Z,5.40
2022-07-26T04:14:18.578Z,7.55
2022-07-26T04:14:50.434Z,7.00
2022-07-26T04:15:22.321Z,5.20
2022-07-26T04:15:54.221Z,7.15
2022-07-26T04:16:26.340Z,6.20
2022-07-26T04:16:58.317Z,5.10
2022-07-26T04:17:35.988Z,6.32
2022-07-26T04:18:07.882Z,7.00
2022-07-26T04:18:39.880Z,5.00
2022-07-26T04:19:11.743Z,7.70
2022-07-26T04:19:43.595Z,5.63
2022-07-26T04:20:15.922Z,7.75
2022-07-26T04:20:47.930Z,6.32
2022-07-26T04:21:20.149Z,5.07
2022-07-26T04:21:51.926Z,5.43
2022-07-26T04:22:23.837Z,6.10
2022-07-26T04:22:55.752Z,6.15
2022-07-26T04:23:27.610Z,6.38
2022-07-26T04:23:59.568Z,5.65
2022-07-26T04:24:31.511Z,6.38
2022-07-26T04:25:05.629Z,7.68
2022-07-26T04:25:41.056Z,5.32
2022-07-26T04:26:14.266Z,5.90
2022-07-26T04:26:46.847Z,6.70
2022-07-26T04:27:18.676Z,7.65
2022-07-26T04:27:50.555Z,6.07
2022-07-26T04:28:22.486Z,6.78
2022-07-26T04:28:54.637Z,6.53
2022-07-26T04:29:28.810Z,6.75
2022-07-26T04:30:00.889Z,7.00
2022-07-26T04:30:32.836Z,5.38
2022-07-26T04:31:04.810Z,6.22
2022-07-26T04:31:36.720Z,6.57
2022-07-26T04:32:08.539Z,7.72
2022-07-26T04:32:40.369Z,6.30
2022-07-26T04:33:12.279Z,5.45
2022-07-26T04:33:44.250Z,7.10
2022-07-26T04:34:16.181Z,10.52
2022-07-26T04:34:48.166Z,5.97
2022-07-26T04:35:20.050Z,7.35
2022-07-26T04:35:52.435Z,9.60
2022-07-26T04:36:24.268Z,5.93
2022-07-26T04:36:56.044Z,6.63
2022-07-26T04:37:27.904Z,6.30
2022-07-26T04:38:00.440Z,6.82
2022-07-26T04:38:32.345Z,6.85
2022-07-26T04:39:04.255Z,6.85
2022-07-26T04:39:36.061Z,6.75
2022-07-26T04:40:09.242Z,9.45
2022-07-26T04:40:41.200Z,5.72
2022-07-26T04:41:14.010Z,12.25
2022-07-26T04:41:45.766Z,6.60
2022-07-26T04:42:17.653Z,6.95
2022-07-26T04:42:51.015Z,6.97
2022-07-26T04:43:22.984Z,6.00
2022-07-26T04:43:55.053Z,8.48
2022-07-26T04:44:26.873Z,6.28
2022-07-26T04:44:58.712Z,7.28
2022-07-26T04:45:30.673Z,5.88
2022-07-26T04:46:02.608Z,6.63
2022-07-26T04:46:34.472Z,5.38
2022-07-26T04:47:06.401Z,11.63
2022-07-26T04:47:41.520Z,6.70
2022-07-26T04:48:13.864Z,8.18
2022-07-26T04:48:45.747Z,7.38
2022-07-26T04:49:17.768Z,6.15
2022-07-26T04:49:49.739Z,9.52
2022-07-26T04:50:23.062Z,7.45
2022-07-26T04:50:55.408Z,6.05
2022-07-26T04:51:27.254Z,9.15
2022-07-26T04:51:59.674Z,4.93
2022-07-26T04:52:31.553Z,7.38
2022-07-26T04:53:04.811Z,5.28
2022-07-26T04:53:36.791Z,4.55
2022-07-26T04:54:08.925Z,5.75
2022-07-26T04:54:41.032Z,5.20
2022-07-26T04:55:13.401Z,7.50
2022-07-26T04:55:45.623Z,4.78
2022-07-26T04:56:17.470Z,5.25
2022-07-26T04:56:50.048Z,3.80
2022-07-26T04:57:22.132Z,3.30
2022-07-26T04:57:54.159Z,4.20
2022-07-26T04:58:26.062Z,5.25
2022-07-26T04:58:57.961Z,6.95
2022-07-26T04:59:32.628Z,4.75
2022-07-26T05:00:21.435Z,3.83
2022-07-26T05:01:09.596Z,3.17
2022-07-26T05:01:42.507Z,4.80
2022-07-26T05:02:15.322Z,3.33
2022-07-26T05:02:47.770Z,3.88
2022-07-26T05:03:22.035Z,3.35
2022-07-26T05:03:56.414Z,4.07
2022-07-26T05:04:28.311Z,3.25
2022-07-26T05:05:00.256Z,3.60
2022-07-26T05:05:33.152Z,3.45
2022-07-26T05:06:05.153Z,2.72
2022-07-26T05:06:37.104Z,1.95
2022-07-26T05:07:10.367Z,2.65
2022-07-26T05:07:44.105Z,2.75
2022-07-26T05:08:16.690Z,3.85
2022-07-26T05:08:48.970Z,5.13
2022-07-26T05:09:20.828Z,2.05
2022-07-26T05:09:52.631Z,2.30
2022-07-26T05:10:55.511Z,6.80
2022-07-26T05:11:28.166Z,2.13
2022-07-26T05:12:00.286Z,2.20
2022-07-26T05:12:32.216Z,3.47
2022-07-26T05:13:06.076Z,2.30
2022-07-26T05:13:37.966Z,3.13
2022-07-26T05:14:10.090Z,1.73
2022-07-26T05:14:42.190Z,5.70
2022-07-26T05:15:15.534Z,1.75
2022-07-26T05:15:47.492Z,2.47
2022-07-26T05:16:24.878Z,2.05
2022-07-26T05:16:56.740Z,4.85
2022-07-26T05:17:28.804Z,5.55
2022-07-26T05:18:06.957Z,3.75
2022-07-26T05:18:49.266Z,2.22
2022-07-26T05:19:21.480Z,2.75
2022-07-26T05:19:54.462Z,3.13
2022-07-26T05:20:26.638Z,4.85
2022-07-26T05:20:58.596Z,3.25
2022-07-26T05:21:30.398Z,2.85
2022-07-26T05:22:02.242Z,2.78
2022-07-26T05:22:35.501Z,3.78
2022-07-26T05:23:07.464Z,1.70
2022-07-26T05:23:39.249Z,1.88
2022-07-26T05:24:11.416Z,5.82
2022-07-26T05:24:43.595Z,2.15
2022-07-26T05:25:15.436Z,5.25
2022-07-26T05:25:47.943Z,5.63
2022-07-26T05:26:19.865Z,3.28
2022-07-26T05:26:55.462Z,4.93
2022-07-26T05:27:30.433Z,3.67
2022-07-26T05:28:03.642Z,5.95
2022-07-26T05:28:35.692Z,4.85
2022-07-26T05:29:07.481Z,3.20
2022-07-26T05:29:39.303Z,4.97
2022-07-26T05:30:11.648Z,2.72
2022-07-26T05:30:43.701Z,3.63
2022-07-26T05:31:15.714Z,3.58
2022-07-26T05:31:47.611Z,2.88
2022-07-26T05:32:19.373Z,3.97
2022-07-26T05:32:51.275Z,2.97
2022-07-26T05:33:23.119Z,2.08
2022-07-26T05:33:55.392Z,10.63
2022-07-26T05:34:27.390Z,3.28
2022-07-26T05:35:01.591Z,1.50
2022-07-26T05:35:33.459Z,5.35
2022-07-26T05:36:05.678Z,3.78
2022-07-26T05:36:37.487Z,5.90
2022-07-26T05:37:09.581Z,5.50
2022-07-26T05:37:41.457Z,4.70
2022-07-26T05:38:13.374Z,4.43
2022-07-26T05:38:45.269Z,3.28
2022-07-26T05:39:17.300Z,4.95
2022-07-26T05:39:49.123Z,6.88
2022-07-26T05:40:21.248Z,2.28
2022-07-26T05:40:53.100Z,2.38
2022-07-26T05:41:24.995Z,3.20
2022-07-26T05:41:56.780Z,2.55
2022-07-26T05:42:28.760Z,4.00
2022-07-26T05:43:00.607Z,1.75
2022-07-26T05:43:40.978Z,5.57
2022-07-26T05:44:15.314Z,2.15
2022-07-26T05:44:47.067Z,5.20
2022-07-26T05:45:19.225Z,1.73
2022-07-26T05:45:51.372Z,3.00
2022-07-26T05:46:23.392Z,3.78
2022-07-26T05:46:55.257Z,6.88
2022-07-26T05:47:27.039Z,5.45
2022-07-26T05:47:58.893Z,7.10
2022-07-26T05:48:30.841Z,3.00
2022-07-26T05:49:04.416Z,3.92
2022-07-26T05:49:39.631Z,3.13
2022-07-26T05:50:12.546Z,6.68
2022-07-26T05:50:44.539Z,3.90
2022-07-26T05:51:16.513Z,2.50
2022-07-26T05:51:48.321Z,3.25
2022-07-26T05:52:20.187Z,7.63
2022-07-26T05:52:52.047Z,7.88
2022-07-26T05:53:23.885Z,6.15
2022-07-26T05:53:56.129Z,5.80
2022-07-26T05:54:27.936Z,7.53
2022-07-26T05:54:59.870Z,3.72
2022-07-26T05:55:31.724Z,10.32
2022-07-26T05:56:04.250Z,6.25
2022-07-26T05:56:36.283Z,4.22
2022-07-26T05:57:08.126Z,7.18
2022-07-26T05:57:42.888Z,5.70
2022-07-26T05:58:14.623Z,6.35
2022-07-26T05:58:46.579Z,2.55
2022-07-26T05:59:18.386Z,3.22
2022-07-26T05:59:50.635Z,3.10
2022-07-26T06:00:22.515Z,4.10
2022-07-26T06:00:54.531Z,3.03
2022-07-26T06:01:26.372Z,3.65
2022-07-26T06:01:58.572Z,5.25
2022-07-26T06:02:30.490Z,2.67
2022-07-26T06:03:21.930Z,2.85
2022-07-26T06:03:53.849Z,4.20
2022-07-26T06:04:27.034Z,3.35
2022-07-26T06:04:58.964Z,3.33
2022-07-26T06:05:30.794Z,5.28
2022-07-26T06:06:02.719Z,4.05
2022-07-26T06:06:35.003Z,5.07
2022-07-26T06:07:06.901Z,8.00
2022-07-26T06:07:38.992Z,4.55
2022-07-26T06:08:10.824Z,5.30
2022-07-26T06:08:42.768Z,3.40
2022-07-26T06:09:14.738Z,6.65
2022-07-26T06:09:46.608Z,3.33
2022-07-26T06:10:18.430Z,3.25
2022-07-26T06:10:51.491Z,6.00
2022-07-26T06:11:23.396Z,4.03
2022-07-26T06:11:55.279Z,3.95
2022-07-26T06:12:28.271Z,8.02
2022-07-26T06:13:00.736Z,4.03
2022-07-26T06:13:32.956Z,8.95
2022-07-26T06:14:04.855Z,6.43
2022-07-26T06:14:36.757Z,3.42
2022-07-26T06:15:15.618Z,3.55
2022-07-26T06:15:48.426Z,3.90
2022-07-26T06:16:20.183Z,3.25
2022-07-26T06:16:52.146Z,3.78
2022-07-26T06:17:24.080Z,6.18
2022-07-26T06:17:56.057Z,5.32
2022-07-26T06:18:27.896Z,3.95
2022-07-26T06:18:59.838Z,4.60
2022-07-26T06:19:34.178Z,3.95
2022-07-26T06:20:06.720Z,4.00
2022-07-26T06:20:43.627Z,5.22
2022-07-26T06:21:15.532Z,4.05
2022-07-26T06:21:47.332Z,6.82
2022-07-26T06:22:19.099Z,4.55
2022-07-26T06:22:51.721Z,4.82
2022-07-26T06:23:34.413Z,4.18
2022-07-26T06:24:07.114Z,3.20
2022-07-26T06:24:38.988Z,6.82
2022-07-26T06:25:10.735Z,5.28
2022-07-26T06:25:42.783Z,4.22
2022-07-26T06:26:14.923Z,4.15
2022-07-26T06:26:46.867Z,3.22
2022-07-26T06:27:18.728Z,7.75
2022-07-26T06:27:50.526Z,5.10
2022-07-26T06:28:22.351Z,5.75
2022-07-26T06:28:54.127Z,4.68
2022-07-26T06:29:32.554Z,4.32
2022-07-26T06:30:05.332Z,5.65
2022-07-26T06:30:38.631Z,5.85
2022-07-26T06:31:10.463Z,2.65
2022-07-26T06:31:42.382Z,4.45
2022-07-26T06:32:14.270Z,3.60
2022-07-26T06:32:46.352Z,4.45
2022-07-26T06:33:18.137Z,4.53
2022-07-26T06:33:51.353Z,4.13
2022-07-26T06:34:23.656Z,4.72
2022-07-26T06:34:55.491Z,4.13
2022-07-26T06:35:35.970Z,3.63
2022-07-26T06:36:08.952Z,2.58
2022-07-26T06:36:40.805Z,3.47
2022-07-26T06:37:12.942Z,3.85
2022-07-26T06:37:44.855Z,5.95
2022-07-26T06:38:19.301Z,7.32
2022-07-26T06:38:51.221Z,3.90
2022-07-26T06:39:23.211Z,10.07
2022-07-26T06:39:54.959Z,4.63
2022-07-26T06:40:26.742Z,3.95
2022-07-26T06:40:58.476Z,5.45
2022-07-26T06:41:30.433Z,5.05
2022-07-26T06:42:02.183Z,5.50
2022-07-26T06:42:35.076Z,4.93
2022-07-26T06:43:07.139Z,6.72
2022-07-26T06:43:40.363Z,5.35
2022-07-26T06:44:12.376Z,5.00
2022-07-26T06:44:44.235Z,3.60
2022-07-26T06:45:16.371Z,4.15
2022-07-26T06:45:49.411Z,4.15
2022-07-26T06:46:21.811Z,9.30
2022-07-26T06:46:53.629Z,2.42
2022-07-26T06:47:25.672Z,6.05
2022-07-26T06:47:57.569Z,4.82
2022-07-26T06:48:29.442Z,8.10
2022-07-26T06:49:02.144Z,5.05
2022-07-26T06:49:34.125Z,3.83
2022-07-26T06:50:13.557Z,6.05
2022-07-26T06:50:45.580Z,3.22
2022-07-26T06:51:17.674Z,4.30
2022-07-26T06:51:49.560Z,3.72
2022-07-26T06:52:22.057Z,3.05
2022-07-26T06:52:53.941Z,5.63
2022-07-26T06:53:25.704Z,3.08
2022-07-26T06:53:57.727Z,2.42
2022-07-26T06:54:32.680Z,4.45
2022-07-26T06:55:05.988Z,3.58
2022-07-26T06:55:38.075Z,3.85
2022-07-26T06:56:10.197Z,4.57
2022-07-26T06:56:44.771Z,2.28
2022-07-26T06:57:16.725Z,2.97
2022-07-26T06:57:49.725Z,2.47
2022-07-26T06:58:22.346Z,5.35
2022-07-26T06:58:55.288Z,4.60
2022-07-26T06:59:29.708Z,2.90
2022-07-26T07:00:02.371Z,5.82
2022-07-26T07:00:34.394Z,4.45
2022-07-26T07:01:06.436Z,4.10
2022-07-26T07:01:55.551Z,2.65
2022-07-26T07:02:30.252Z,5.45
2022-07-26T07:03:02.048Z,4.68
2022-07-26T07:03:33.876Z,5.88
2022-07-26T07:04:06.031Z,4.40
2022-07-26T07:04:38.133Z,3.00
2022-07-26T07:05:11.799Z,4.07
2022-07-26T07:05:49.309Z,4.80
2022-07-26T07:06:21.677Z,2.97
2022-07-26T07:06:53.376Z,3.42
2022-07-26T07:07:27.093Z,3.75
2022-07-26T07:08:00.751Z,4.68
2022-07-26T07:08:34.410Z,1.92
2022-07-26T07:09:07.814Z,3.03
2022-07-26T07:09:40.777Z,3.20
2022-07-26T07:10:12.775Z,4.50
2022-07-26T07:10:44.857Z,2.92
2022-07-26T07:11:16.596Z,2.45
2022-07-26T07:11:52.293Z,4.03
2022-07-26T07:12:28.056Z,3.45
2022-07-26T07:12:59.865Z,2.90
2022-07-26T07:13:31.632Z,4.43